Time;durP1;ratioP1;P1;durP2;ratioP2;P2;SDS_P1;SDS_P2;PMS_P1;PMS_P2;Temp;Humidity;BMP_temperature;BMP_pressure;BME280_temperature;BME280_humidity;BME280_pressure;Samples;Min_cycle;Max_cycle;Signal;HPM_P1;HPM_P2
2021/12/13 00:00:03;;;;;;;18.80;10.20;;;;;;;1.91;54.58;100400.59;7632777;32;40624;-80
2021/12/13 00:05:02;;;;;;;15.27;8.18;;;;;;;2.00;54.17;100396.69;7632565;32;38095;-79
2021/12/13 00:09:22;;;;;;;15.73;8.98;;;;;;;1.81;55.58;100396.44;7617523;32;36120;-77
2021/12/13 00:13:46;;;;;;;18.33;10.23;;;;;;;1.63;56.46;100396.94;7632558;32;39358;-79
2021/12/13 00:18:05;;;;;;;14.90;9.18;;;;;;;1.44;57.17;100395.78;7632150;32;40784;-79
2021/12/13 00:22:26;;;;;;;14.43;8.13;;;;;;;1.57;56.96;100395.06;7632598;32;37913;-80
2021/12/13 00:26:47;;;;;;;13.45;8.05;;;;;;;1.70;56.09;100396.97;7632406;32;37250;-80
2021/12/13 00:31:31;;;;;;;12.45;8.00;;;;;;;1.46;56.80;100391.03;7632222;32;39172;-79
2021/12/13 00:35:54;;;;;;;12.88;7.18;;;;;;;1.58;56.08;100385.94;7632331;32;39950;-79
2021/12/13 00:40:33;;;;;;;14.57;8.10;;;;;;;1.52;55.58;100402.03;7632261;32;37862;-79
2021/12/13 00:44:52;;;;;;;15.52;8.57;;;;;;;1.75;54.66;100399.91;7632252;32;37805;-79
2021/12/13 00:49:11;;;;;;;17.23;8.95;;;;;;;1.43;55.41;100399.53;7632240;32;39235;-78
2021/12/13 00:53:32;;;;;;;21.45;10.15;;;;;;;1.12;56.31;100398.06;7632138;32;39900;-78
2021/12/13 00:58:12;;;;;;;19.40;10.60;;;;;;;1.49;55.14;100404.09;7630757;32;38680;-79
2021/12/13 01:02:29;;;;;;;18.62;10.82;;;;;;;1.37;55.19;100405.66;7631917;32;37438;-79
2021/12/13 01:07:10;;;;;;;15.88;9.95;;;;;;;1.11;55.60;100407.13;7631885;32;39410;-79
2021/12/13 01:11:38;;;;;;;20.92;9.93;;;;;;;1.25;55.26;100407.25;7631951;32;39871;-80
2021/12/13 01:16:15;;;;;;;16.17;10.40;;;;;;;1.34;55.05;100411.44;7631897;32;37834;-80
2021/12/13 01:20:54;;;;;;;14.02;9.23;;;;;;;1.15;55.53;100412.12;7630785;32;37953;-79
2021/12/13 01:25:45;;;;;;;15.05;9.32;;;;;;;1.21;55.22;100416.69;7631750;32;40090;-79
2021/12/13 01:30:03;;;;;;;17.27;9.77;;;;;;;1.40;54.66;100418.72;7630380;32;40862;-79
2021/12/13 01:34:20;;;;;;;18.20;9.95;;;;;;;1.02;55.84;100419.06;7631402;32;37685;-79
2021/12/13 01:38:47;;;;;;;18.85;9.90;;;;;;;0.99;55.87;100419.44;7631408;32;37202;-79
2021/12/13 01:43:12;;;;;;;15.60;9.50;;;;;;;1.12;55.48;100413.31;7630161;32;40163;-80
2021/12/13 01:47:37;;;;;;;19.37;10.50;;;;;;;1.08;55.72;100415.56;7631271;32;40595;-80
2021/12/13 01:51:56;;;;;;;21.85;11.02;;;;;;;0.75;56.60;100429.53;7631018;32;37805;-80
2021/12/13 02:01:14;;;;;;;19.70;10.27;;;;;;;0.90;56.48;100425.97;7630986;32;39906;-80
2021/12/13 02:05:33;;;;;;;19.87;10.27;;;;;;;0.80;56.55;100414.72;7630847;32;40679;-79
2021/12/13 02:09:49;;;;;;;18.95;10.52;;;;;;;0.72;57.07;100423.72;7630423;32;37706;-80
2021/12/13 02:14:13;;;;;;;19.50;10.55;;;;;;;0.54;57.53;100432.22;7629387;32;36903;-80
2021/12/13 02:18:33;;;;;;;18.17;9.77;;;;;;;0.41;57.74;100438.25;7630384;32;39302;-80
2021/12/13 02:22:52;;;;;;;16.23;10.32;;;;;;;0.56;57.13;100440.91;7630307;32;40734;-80
2021/12/13 02:27:10;;;;;;;17.58;10.75;;;;;;;0.71;57.03;100439.00;7630002;32;37808;-80
2021/12/13 02:31:31;;;;;;;19.70;10.57;;;;;;;0.61;57.05;100437.66;7629740;32;37558;-80
2021/12/13 02:35:52;;;;;;;18.50;10.27;;;;;;;0.96;56.10;100438.59;7628842;32;39337;-80
2021/12/13 02:40:11;;;;;;;17.70;9.98;;;;;;;0.90;56.12;100434.84;7631050;32;40199;-80
2021/12/13 02:44:37;;;;;;;22.73;11.07;;;;;;;0.92;55.73;100435.47;7633499;32;38517;-79
2021/12/13 02:48:58;;;;;;;18.05;10.73;;;;;;;0.90;55.68;100436.72;7633454;32;37829;-80
2021/12/13 02:53:17;;;;;;;15.15;10.10;;;;;;;0.89;55.86;100429.66;7633516;32;40199;-80
2021/12/13 02:57:43;;;;;;;25.73;11.50;;;;;;;0.56;56.94;100430.16;7633387;32;39928;-79
2021/12/13 03:02:05;;;;;;;19.77;10.48;;;;;;;0.65;56.85;100429.00;7633265;32;38553;-79
2021/12/13 03:06:25;;;;;;;16.85;9.88;;;;;;;0.40;57.64;100422.34;7876616;27;37281;-80
2021/12/13 03:10:47;;;;;;;15.60;9.95;;;;;;;0.15;58.13;100414.66;7633417;32;39077;-81
2021/12/13 03:15:09;;;;;;;19.95;10.73;;;;;;;0.61;56.97;100410.81;7633329;32;40714;-82
2021/12/13 03:19:51;;;;;;;17.90;10.43;;;;;;;0.40;57.47;100407.09;7633143;32;38699;-82
2021/12/13 03:24:19;;;;;;;15.30;10.23;;;;;;;0.80;56.13;100410.19;7633220;32;36917;-82
2021/12/13 03:29:04;;;;;;;17.67;10.85;;;;;;;0.40;57.25;100416.97;7633069;32;39371;-82
2021/12/13 03:33:29;;;;;;;18.45;10.73;;;;;;;0.55;57.14;100428.50;7633035;32;39955;-82
2021/12/13 03:37:53;;;;;;;23.42;11.07;;;;;;;0.54;56.76;100427.69;7632922;32;39188;-82
2021/12/13 03:42:28;;;;;;;20.25;11.27;;;;;;;0.40;56.78;100433.06;7633001;32;37360;-82
2021/12/13 03:46:46;;;;;;;22.62;11.25;;;;;;;0.50;56.49;100421.03;7632997;32;39263;-82
2021/12/13 03:51:09;;;;;;;18.62;11.23;;;;;;;0.58;56.59;100428.13;7632064;32;39800;-83
2021/12/13 03:55:28;;;;;;;19.50;11.25;;;;;;;0.30;57.21;100431.53;7632658;32;38033;-82
2021/12/13 03:59:46;;;;;;;17.42;11.02;;;;;;;0.23;57.73;100438.69;7632692;32;37469;-84
2021/12/13 04:04:05;;;;;;;17.80;10.90;;;;;;;0.14;57.78;100447.88;7632778;32;39216;-82
2021/12/13 04:08:22;;;;;;;18.08;10.52;;;;;;;0.24;57.58;100450.22;7632441;32;39770;-82
2021/12/13 04:12:46;;;;;;;21.45;10.95;;;;;;;0.43;56.93;100446.13;7632533;32;38194;-82
2021/12/13 04:17:20;;;;;;;16.48;10.18;;;;;;;0.60;56.43;100436.81;7632621;32;37296;-82
2021/12/13 04:21:40;;;;;;;21.02;11.75;;;;;;;0.43;57.21;100446.13;7632535;32;40216;-83
2021/12/13 04:25:59;;;;;;;18.45;11.68;;;;;;;0.45;57.23;100439.56;7632353;32;40812;-82
2021/12/13 04:30:21;;;;;;;16.67;9.80;;;;;;;0.39;57.38;100439.47;7632306;32;38790;-82
2021/12/13 04:34:41;;;;;;;18.87;11.13;;;;;;;0.68;56.63;100444.75;7632560;32;36827;-82
2021/12/13 04:39:13;;;;;;;16.55;10.82;;;;;;;0.66;56.82;100445.97;7632270;32;40052;-82
2021/12/13 04:43:35;;;;;;;18.73;11.45;;;;;;;0.69;56.78;100448.25;7632515;32;40890;-82
2021/12/13 04:48:20;;;;;;;17.75;11.38;;;;;;;0.27;57.66;100464.09;7632182;32;38686;-82
2021/12/13 04:52:36;;;;;;;21.30;11.82;;;;;;;0.03;58.61;100462.56;7631785;32;37134;-82
2021/12/13 04:56:55;;;;;;;17.85;10.48;;;;;;;0.10;58.67;100457.28;7632135;32;39372;-83
2021/12/13 05:01:14;;;;;;;20.45;10.30;;;;;;;0.33;57.90;100463.34;7632100;32;40617;-82
2021/12/13 05:05:32;;;;;;;22.70;12.05;;;;;;;0.52;57.00;100455.72;7630766;32;38805;-82
2021/12/13 05:09:51;;;;;;;19.02;11.45;;;;;;;0.54;57.18;100451.81;7631966;32;37193;-82
2021/12/13 05:14:08;;;;;;;18.20;10.63;;;;;;;0.61;56.98;100449.22;7630790;32;39259;-82
2021/12/13 05:18:28;;;;;;;20.67;11.98;;;;;;;0.48;57.12;100470.53;7631775;32;40719;-84
2021/12/13 05:22:56;;;;;;;20.52;11.57;;;;;;;0.63;57.43;100474.00;7631608;32;37903;-82
2021/12/13 05:27:24;;;;;;;19.98;10.77;;;;;;;0.40;57.99;100487.59;7630547;32;37385;-83
2021/12/13 05:31:48;;;;;;;18.50;11.10;;;;;;;0.59;57.58;100499.56;7630399;32;40144;-82
2021/12/13 05:36:17;;;;;;;22.15;12.35;;;;;;;0.52;57.48;100494.13;7631432;32;39955;-83
2021/12/13 05:40:45;;;;;;;22.33;11.90;;;;;;;0.73;56.87;100496.00;7631364;32;38018;-83
2021/12/13 05:45:02;;;;;;;71.55;26.48;;;;;;;0.64;57.13;100502.50;7630187;32;36867;-82
2021/12/13 05:49:22;;;;;;;29.30;17.55;;;;;;;0.64;57.14;100507.03;7629859;32;39413;-83
2021/12/13 05:53:44;;;;;;;24.42;14.05;;;;;;;0.73;56.94;100506.75;7629969;32;40113;-82
2021/12/13 05:58:00;;;;;;;19.80;13.05;;;;;;;0.39;57.96;100514.59;7631409;32;36066;-82
2021/12/13 06:02:38;;;;;;;22.23;12.80;;;;;;;0.40;57.62;100514.41;7630862;32;37956;-82
2021/12/13 06:06:56;;;;;;;21.20;13.15;;;;;;;0.41;57.93;100524.09;7630409;32;40206;-82
2021/12/13 06:11:17;;;;;;;24.33;13.27;;;;;;;0.59;58.15;100520.19;7630527;32;40732;-82
2021/12/13 06:15:37;;;;;;;21.15;12.50;;;;;;;0.23;60.78;100529.88;7631949;32;37911;-82
2021/12/13 06:20:07;;;;;;;26.62;13.43;;;;;;;0.53;60.02;100529.81;7634016;32;37158;-82
2021/12/13 06:24:33;;;;;;;21.95;12.73;;;;;;;0.56;59.34;100532.13;7633966;32;39104;-82
2021/12/13 06:28:59;;;;;;;20.37;12.65;;;;;;;0.60;58.41;100544.16;7633775;32;39704;-81
2021/12/13 06:33:16;;;;;;;21.87;12.85;;;;;;;0.61;57.93;100532.41;7633700;32;37772;-81
2021/12/13 06:37:35;;;;;;;27.02;12.63;;;;;;;0.43;57.89;100540.88;7633832;32;37280;-82
2021/12/13 06:41:58;;;;;;;25.35;13.00;;;;;;;0.69;56.49;100548.41;7633687;32;39865;-80
2021/12/13 06:46:24;;;;;;;22.40;11.23;;;;;;;0.52;57.05;100549.66;7632364;32;39962;-81
2021/12/13 06:50:40;;;;;;;21.83;12.43;;;;;;;0.70;64.34;100555.41;7633296;32;38003;-81
2021/12/13 06:55:02;;;;;;;23.98;13.50;;;;;;;0.90;65.20;100552.16;7633465;32;37403;-81
2021/12/13 06:59:19;;;;;;;24.17;13.00;;;;;;;0.91;62.22;100549.28;7633657;32;39984;-79
2021/12/13 07:03:35;;;;;;;24.75;13.62;;;;;;;0.72;60.30;100548.00;7632157;32;40211;-80
2021/12/13 07:08:02;;;;;;;19.87;13.00;;;;;;;0.71;59.01;100548.22;7633115;32;38178;-80
2021/12/13 07:12:19;;;;;;;23.48;13.52;;;;;;;0.96;57.33;100551.38;7633269;32;37896;-82
2021/12/13 07:16:38;;;;;;;25.33;12.73;;;;;;;1.02;56.58;100553.31;7633268;32;40155;-80
2021/12/13 07:21:10;;;;;;;22.52;12.35;;;;;;;0.90;57.73;100560.22;7631990;32;39971;-81
2021/12/13 07:25:33;;;;;;;21.35;13.27;;;;;;;0.86;57.51;100569.63;7631433;32;38066;-80
2021/12/13 07:29:51;;;;;;;19.57;11.80;;;;;;;1.05;56.97;100571.75;7632911;32;37710;-80
2021/12/13 07:34:12;;;;;;;25.33;13.35;;;;;;;1.35;56.41;100578.84;7632978;32;40528;-80
2021/12/13 07:38:30;;;;;;;25.60;14.57;;;;;;;1.53;61.53;100575.69;7632971;32;40769;-80
2021/12/13 07:43:06;;;;;;;25.00;14.50;;;;;;;1.53;58.06;100583.75;7632863;32;38167;-79
2021/12/13 07:47:24;;;;;;;23.08;12.68;;;;;;;1.84;56.61;100586.09;7632885;32;37210;-81
2021/12/13 07:51:49;;;;;;;24.85;13.80;;;;;;;1.54;56.71;100596.19;7632855;32;38302;-79
2021/12/13 07:56:06;;;;;;;23.38;13.15;;;;;;;1.79;56.74;100592.03;7632837;32;39716;-78
2021/12/13 08:00:36;;;;;;;24.77;14.60;;;;;;;2.18;56.04;100597.94;7632749;32;38679;-79
2021/12/13 08:05:11;;;;;;;30.77;14.82;;;;;;;1.45;57.05;100590.94;7632684;32;37207;-79
2021/12/13 08:09:29;;;;;;;26.77;14.63;;;;;;;1.84;55.87;100600.34;7632358;32;39826;-77
2021/12/13 08:13:57;;;;;;;26.62;14.50;;;;;;;2.09;55.71;100613.37;7632489;32;39741;-79
2021/12/13 08:18:25;;;;;;;23.23;14.35;;;;;;;2.24;55.36;100599.81;7632451;32;37594;-77
2021/12/13 08:22:44;;;;;;;31.67;15.35;;;;;;;2.33;54.95;100603.19;7632542;32;37124;-79
2021/12/13 08:27:09;;;;;;;29.95;15.60;;;;;;;2.37;55.93;100604.47;7632507;32;39978;-78
2021/12/13 08:31:29;;;;;;;26.80;14.98;;;;;;;2.78;55.00;100609.84;7632254;32;40709;-77
2021/12/13 08:36:01;;;;;;;28.20;15.60;;;;;;;2.63;55.09;100618.06;7632351;32;38748;-79
2021/12/13 08:40:21;;;;;;;26.02;15.48;;;;;;;3.10;54.63;100609.34;7631922;32;37752;-80
2021/12/13 08:44:41;;;;;;;30.00;16.60;;;;;;;3.33;54.46;100617.91;7632336;32;39106;-80
2021/12/13 08:48:58;;;;;;;29.20;16.62;;;;;;;3.76;53.34;100614.88;7632192;32;40630;-79
2021/12/13 08:53:28;;;;;;;26.12;15.55;;;;;;;3.81;52.46;100624.19;7631989;32;38062;-79
2021/12/13 08:58:17;;;;;;;25.30;16.00;;;;;;;4.30;52.07;100621.06;7632120;32;37970;-80
2021/12/13 09:02:38;;;;;;;26.50;15.25;;;;;;;4.38;51.94;100611.06;7628185;32;39204;-80
2021/12/13 09:06:58;;;;;;;28.42;15.35;;;;;;;5.01;50.32;100615.88;7631603;32;40868;-79
2021/12/13 09:11:27;;;;;;;26.33;14.82;;;;;;;5.42;49.91;100612.72;7631760;32;37977;-82
2021/12/13 09:15:47;;;;;;;29.25;14.52;;;;;;;5.44;49.48;100616.03;7631842;32;37029;-81
2021/12/13 09:20:28;;;;;;;33.00;14.68;;;;;;;5.97;48.79;100609.44;7631846;32;39308;-80
2021/12/13 09:24:47;;;;;;;30.62;14.68;;;;;;;6.03;47.25;100610.44;7630467;32;40763;-79
2021/12/13 09:29:06;;;;;;;26.65;15.48;;;;;;;5.72;48.45;100614.00;7631503;32;37938;-80
2021/12/13 09:33:50;;;;;;;29.50;16.20;;;;;;;6.23;47.26;100606.72;7631480;32;37197;-80
2021/12/13 09:38:24;;;;;;;27.13;16.37;;;;;;;6.32;47.16;100605.38;7629162;32;39987;-81
2021/12/13 09:42:51;;;;;;;29.05;16.55;;;;;;;6.73;45.82;100602.03;7631278;32;40724;-81
2021/12/13 09:47:10;;;;;;;28.67;15.98;;;;;;;6.78;46.09;100593.22;7631155;32;37779;-79
2021/12/13 09:51:32;;;;;;;30.20;16.73;;;;;;;7.22;47.78;100593.88;7630094;32;37422;-80
2021/12/13 09:55:50;;;;;;;29.20;16.42;;;;;;;6.63;46.40;100595.47;7631092;32;40248;-80
2021/12/13 10:00:19;;;;;;;27.58;16.73;;;;;;;6.93;46.87;100590.09;7630750;32;40424;-81
2021/12/13 10:04:39;;;;;;;30.58;16.45;;;;;;;7.38;47.25;100584.28;7630755;32;38925;-81
2021/12/13 10:09:20;;;;;;;25.77;15.88;;;;;;;7.59;45.33;100573.94;7630601;32;36939;-81
2021/12/13 10:13:38;;;;;;;26.25;14.02;;;;;;;7.55;44.51;100576.28;7629457;32;40025;-81
2021/12/13 10:18:02;;;;;;;23.75;12.70;;;;;;;6.90;46.12;100574.31;7630449;32;42130;-81
2021/12/13 10:22:23;;;;;;;24.15;13.38;;;;;;;6.85;46.25;100582.31;7630297;32;37989;-80
2021/12/13 10:26:42;;;;;;;22.92;12.00;;;;;;;6.67;46.13;100569.56;7630323;32;36970;-81
2021/12/13 10:31:23;;;;;;;22.90;13.10;;;;;;;6.72;45.64;100575.97;7629529;32;40442;-82
2021/12/13 10:35:41;;;;;;;21.23;11.15;;;;;;;7.18;46.33;100572.91;7630046;32;40815;-81
2021/12/13 10:40:21;;;;;;;22.20;10.68;;;;;;;6.94;44.59;100570.91;7629976;32;37227;-82
2021/12/13 10:44:43;;;;;;;19.45;11.20;;;;;;;7.48;43.77;100557.41;7629891;32;37895;-81
2021/12/13 10:49:14;;;;;;;19.15;11.38;;;;;;;6.81;44.07;100564.81;7629984;32;39119;-81
2021/12/13 10:53:31;;;;;;;21.00;11.02;;;;;;;6.97;44.12;100564.22;7629713;32;40852;-81
2021/12/13 10:57:48;;;;;;;21.50;11.10;;;;;;;6.90;44.10;100560.75;7629458;32;37628;-81
2021/12/13 11:02:13;;;;;;;24.63;11.98;;;;;;;7.66;43.52;100561.12;7631651;32;37775;-82
2021/12/13 11:06:29;;;;;;;19.70;11.30;;;;;;;7.31;44.31;100559.97;7633199;32;39879;-82
2021/12/13 11:10:53;;;;;;;20.83;10.77;;;;;;;7.23;44.31;100551.34;7633200;32;39700;-82
2021/12/13 11:15:18;;;;;;;19.00;10.35;;;;;;;7.26;44.48;100549.00;7633352;32;38137;-82
2021/12/13 11:19:37;;;;;;;18.83;10.15;;;;;;;7.24;44.91;100547.56;7632082;32;38191;-82
2021/12/13 11:23:55;;;;;;;19.60;9.57;;;;;;;7.26;43.12;100561.69;7633221;32;39126;-82
2021/12/13 11:28:13;;;;;;;18.65;10.90;;;;;;;7.20;43.68;100557.22;7633121;32;39938;-82
2021/12/13 11:32:32;;;;;;;22.08;11.60;;;;;;;6.82;45.08;100544.81;7632874;32;36854;-82
2021/12/13 11:37:26;;;;;;;21.20;10.30;;;;;;;6.92;45.57;100551.31;7632968;32;37264;-82
2021/12/13 11:42:13;;;;;;;20.83;10.97;;;;;;;7.01;45.38;100546.41;7632987;32;40157;-82
2021/12/13 11:46:56;;;;;;;20.85;10.55;;;;;;;7.09;45.51;100545.28;7632510;32;40163;-81
2021/12/13 11:51:28;;;;;;;;;;;;;;;7.20;44.50;100541.75;7632926;32;38831;-81
2021/12/13 11:56:21;;;;;;;22.05;10.75;;;;;;;7.68;43.43;100538.09;7632835;32;36905;-82
2021/12/13 12:01:08;;;;;;;23.23;10.60;;;;;;;7.23;44.80;100540.50;7632571;32;40070;-82
2021/12/13 12:05:45;;;;;;;21.40;10.88;;;;;;;7.99;43.41;100532.56;7632646;32;40138;-81
2021/12/13 12:10:38;;;;;;;22.98;11.00;;;;;;;8.17;42.91;100529.72;7632565;32;36995;-82
2021/12/13 12:15:00;;;;;;;19.77;10.70;;;;;;;7.74;43.72;100522.75;7631936;32;38073;-81
2021/12/13 12:19:21;;;;;;;21.37;11.18;;;;;;;8.48;41.97;100522.25;7626649;32;232793;-79
2021/12/13 12:23:42;;;;;;;21.50;11.68;;;;;;;8.33;42.19;100514.59;7632165;32;40083;-83
2021/12/13 12:28:07;;;;;;;21.33;12.00;;;;;;;7.90;42.07;100519.34;7631217;32;37994;-78
2021/12/13 12:32:33;;;;;;;22.27;11.27;;;;;;;7.74;43.64;100520.03;7631139;32;36985;-78
2021/12/13 12:36:58;;;;;;;18.50;10.45;;;;;;;7.68;42.75;100526.41;7631645;32;39509;-79
2021/12/13 12:41:53;;;;;;;20.33;10.65;;;;;;;8.20;41.45;100518.37;7632275;32;39994;-78
2021/12/13 12:46:30;;;;;;;20.23;11.12;;;;;;;8.71;41.96;100518.66;7576196;33;38813;-80
2021/12/13 12:51:00;;;;;;;22.45;11.48;;;;;;;8.71;41.35;100517.81;7611776;32;37266;-79
2021/12/13 12:55:22;;;;;;;21.35;11.10;;;;;;;7.51;44.17;100527.09;7632189;32;39325;-82
2021/12/13 12:59:42;;;;;;;20.70;11.05;;;;;;;8.87;42.08;100522.50;7631958;32;40926;-82
2021/12/13 13:04:27;;;;;;;22.70;11.88;;;;;;;9.28;41.00;100527.84;7632362;32;35781;-82
2021/12/13 13:08:48;;;;;;;20.12;12.00;;;;;;;9.29;39.49;100534.94;7631813;32;37826;-81
2021/12/13 13:13:10;;;;;;;17.40;10.95;;;;;;;9.08;40.00;100537.28;7631899;32;39503;-79
2021/12/13 13:17:30;;;;;;;22.48;11.45;;;;;;;9.45;40.50;100531.44;7622325;32;39884;-78
2021/12/13 13:21:47;;;;;;;21.80;11.75;;;;;;;10.19;37.68;100532.28;7629786;32;39009;-79
2021/12/13 13:26:04;;;;;;;20.45;10.55;;;;;;;10.27;37.55;100531.84;7628755;32;37862;-78
2021/12/13 13:30:29;;;;;;;17.67;10.35;;;;;;;12.96;31.89;100523.72;7630841;32;40140;-80
2021/12/13 13:34:52;;;;;;;18.17;9.40;;;;;;;15.32;27.75;100523.25;7631024;32;40365;-79
2021/12/13 13:39:16;;;;;;;18.05;9.65;;;;;;;16.64;24.18;100514.03;7630466;32;38887;-80
2021/12/13 13:43:34;;;;;;;16.25;9.30;;;;;;;17.81;23.23;100507.03;7630141;32;36036;-78
2021/12/13 13:47:54;;;;;;;15.90;9.35;;;;;;;18.14;22.71;100505.09;7629492;32;39340;-79
2021/12/13 13:52:28;;;;;;;16.87;9.32;;;;;;;19.00;21.85;100519.38;7630576;32;39980;-78
2021/12/13 13:56:46;;;;;;;17.27;10.10;;;;;;;19.29;20.78;100517.03;7629665;32;38795;-78
2021/12/13 14:01:26;;;;;;;17.30;10.05;;;;;;;19.26;20.32;100517.63;7629073;32;37976;-77
2021/12/13 14:05:45;;;;;;;20.10;10.88;;;;;;;18.46;21.33;100521.87;7620448;32;39207;-77
2021/12/13 14:10:08;;;;;;;18.42;10.88;;;;;;;19.59;20.18;100527.66;7630688;32;40670;-79
2021/12/13 14:14:38;;;;;;;23.30;13.95;;;;;;;19.12;20.83;100528.75;7629218;32;38863;-78
2021/12/13 14:18:55;;;;;;;19.67;12.43;;;;;;;18.01;22.25;100526.00;7630554;32;37463;-79
2021/12/13 14:23:21;;;;;;;22.33;13.38;;;;;;;16.47;24.43;100530.16;7629217;32;39177;-78
2021/12/13 14:27:38;;;;;;;21.80;13.75;;;;;;;15.45;26.27;100532.75;7630229;32;40506;-78
2021/12/13 14:32:15;;;;;;;24.35;13.48;;;;;;;17.15;24.13;100526.28;7629846;32;38526;-78
2021/12/13 14:36:44;;;;;;;25.37;15.18;;;;;;;16.94;24.73;100544.25;7630566;32;36976;-77
2021/12/13 14:41:05;;;;;;;22.90;13.68;;;;;;;15.10;27.21;100553.06;7633663;32;40085;-76
2021/12/13 14:45:21;;;;;;;24.20;14.57;;;;;;;13.43;29.82;100561.06;7633598;32;41048;-76
2021/12/13 14:49:46;;;;;;;26.92;13.90;;;;;;;11.86;33.00;100577.25;7633358;32;38078;-78
2021/12/13 14:54:02;;;;;;;23.75;13.30;;;;;;;10.69;35.58;100585.87;7633516;32;37357;-79
2021/12/13 14:58:21;;;;;;;27.35;16.17;;;;;;;9.54;38.08;100589.84;7633284;32;40022;-80
2021/12/13 15:02:59;;;;;;;27.52;15.65;;;;;;;8.86;39.79;100593.44;7609662;32;39671;-79
2021/12/13 15:07:20;;;;;;;29.23;15.93;;;;;;;8.43;40.78;100593.63;7625007;32;38647;-81
2021/12/13 15:11:47;;;;;;;29.02;16.48;;;;;;;8.22;41.42;100607.78;7632605;32;38094;-81
2021/12/13 15:16:07;;;;;;;29.23;17.08;;;;;;;7.78;42.86;100608.09;7632670;32;39896;-76
2021/12/13 15:20:26;;;;;;;35.92;18.40;;;;;;;7.52;43.65;100621.00;7632675;32;40553;-79
2021/12/13 15:24:43;;;;;;;31.20;16.70;;;;;;;7.13;44.75;100627.81;7632177;32;38787;-81
2021/12/13 15:29:04;;;;;;;31.83;17.25;;;;;;;6.66;46.13;100631.09;7631185;32;37123;-79
2021/12/13 15:33:24;;;;;;;34.15;17.42;;;;;;;6.42;46.85;100637.37;7633051;32;39352;-80
2021/12/13 15:37:44;;;;;;;30.05;16.48;;;;;;;6.37;46.96;100633.44;7632152;32;40141;-79
2021/12/13 15:42:00;;;;;;;26.02;16.30;;;;;;;6.19;47.74;100628.84;7631934;32;38068;-79
2021/12/13 15:46:28;;;;;;;29.50;16.75;;;;;;;6.06;47.88;100641.66;7631837;32;38144;-80
2021/12/13 15:50:45;;;;;;;30.58;17.65;;;;;;;5.88;48.59;100643.22;7631124;32;40201;-80
2021/12/13 15:55:02;;;;;;;34.15;17.45;;;;;;;5.68;49.37;100647.97;7632573;32;39745;-78
2021/12/13 15:59:23;;;;;;;29.02;17.00;;;;;;;5.42;49.77;100645.19;7631948;32;37906;-79
2021/12/13 16:03:42;;;;;;;34.75;18.60;;;;;;;5.25;50.66;100655.66;7632281;32;37886;-80
2021/12/13 16:07:58;;;;;;;33.60;18.90;;;;;;;5.18;51.00;100654.88;7632083;32;40096;-78
2021/12/13 16:12:25;;;;;;;41.78;26.62;;;;;;;5.04;51.28;100658.69;7630960;32;40105;-79
2021/12/13 16:16:53;;;;;;;37.00;22.37;;;;;;;4.81;51.71;100659.16;7632393;32;39079;-79
2021/12/13 16:21:09;;;;;;;40.20;22.80;;;;;;;4.72;52.02;100666.66;7630411;32;37049;-80
2021/12/13 16:25:48;;;;;;;42.00;23.12;;;;;;;4.26;53.53;100673.81;7624245;32;39374;-80
2021/12/13 16:30:05;;;;;;;57.65;29.37;;;;;;;4.37;53.23;100685.03;7630559;32;39863;-80
2021/12/13 16:34:21;;;;;;;43.95;21.70;;;;;;;4.03;54.30;100684.19;7631113;32;37990;-79
2021/12/13 16:38:38;;;;;;;32.35;19.85;;;;;;;4.41;53.44;100692.47;7631856;32;37999;-81
2021/12/13 16:43:06;;;;;;;36.15;19.35;;;;;;;4.20;54.41;100680.03;7631906;32;39423;-80
2021/12/13 16:47:24;;;;;;;35.40;19.33;;;;;;;4.44;53.71;100686.66;7631987;32;40820;-80
2021/12/13 16:51:47;;;;;;;41.13;19.35;;;;;;;4.08;54.54;100685.22;7631039;32;37017;-80
2021/12/13 16:56:06;;;;;;;35.95;19.80;;;;;;;4.28;54.17;100685.22;7628833;32;37844;-80
2021/12/13 17:00:26;;;;;;;34.72;18.48;;;;;;;3.74;56.00;100694.31;7631436;32;39142;-80
2021/12/13 17:04:52;;;;;;;31.67;19.35;;;;;;;3.92;55.32;100691.03;7631367;32;39987;-79
2021/12/13 17:09:09;;;;;;;36.45;20.02;;;;;;;4.03;54.54;100686.88;7631095;32;38722;-76
2021/12/13 17:13:32;;;;;;;35.22;18.55;;;;;;;3.86;55.51;100703.47;7631383;32;37502;-79
2021/12/13 17:17:48;;;;;;;34.07;19.77;;;;;;;3.76;56.08;100701.19;7631292;32;39430;-79
2021/12/13 17:22:07;;;;;;;31.52;18.52;;;;;;;3.83;55.62;100694.94;7631248;32;40767;-80
2021/12/13 17:26:29;;;;;;;37.55;20.12;;;;;;;3.88;55.43;100695.16;7623455;32;38700;-78
2021/12/13 17:30:54;;;;;;;32.30;18.65;;;;;;;3.78;56.07;100698.28;7609604;32;37317;-78
2021/12/13 17:35:11;;;;;;;35.55;19.62;;;;;;;3.66;55.97;100700.75;7604631;32;40625;-79
2021/12/13 17:39:31;;;;;;;39.50;18.98;;;;;;;3.38;57.21;100707.09;7604447;32;39897;-79
2021/12/13 17:43:50;;;;;;;32.85;18.80;;;;;;;3.23;57.60;100719.88;7605299;32;36133;-79
2021/12/13 17:48:32;;;;;;;31.55;17.73;;;;;;;3.09;57.90;100710.09;7614621;32;38020;-75
2021/12/13 17:53:09;;;;;;;35.80;18.45;;;;;;;3.55;64.11;100720.19;7630682;32;39156;-79
2021/12/13 17:57:54;;;;;;;33.83;17.80;;;;;;;3.50;58.17;100717.28;7630547;32;39830;-79
2021/12/13 18:02:13;;;;;;;34.55;17.60;;;;;;;3.30;57.17;100723.44;7628933;32;37822;-79
2021/12/13 18:06:43;;;;;;;32.92;17.80;;;;;;;3.32;57.11;100720.53;7630697;32;37057;-79
2021/12/13 18:11:00;;;;;;;35.55;19.12;;;;;;;3.25;56.99;100735.84;7630864;32;39475;-78
2021/12/13 18:15:25;;;;;;;41.20;21.02;;;;;;;3.09;57.53;100731.63;7632570;32;40802;-80
2021/12/13 18:20:01;;;;;;;38.03;20.98;;;;;;;2.88;58.34;100738.78;7633032;32;37903;-78
2021/12/13 18:24:19;;;;;;;36.70;20.95;;;;;;;2.94;58.36;100746.03;7633658;32;38480;-80
2021/12/13 18:28:57;;;;;;;41.58;21.80;;;;;;;2.86;58.41;100743.50;7633219;32;40016;-80
2021/12/13 18:33:18;;;;;;;31.70;19.17;;;;;;;2.81;58.22;100746.81;7633151;32;40782;-79
2021/12/13 18:37:37;;;;;;;34.92;18.05;;;;;;;2.91;57.73;100757.22;7633361;32;38961;-80
2021/12/13 18:42:22;;;;;;;35.75;19.30;;;;;;;2.98;56.95;100758.09;7631912;32;36388;-80
2021/12/13 18:46:52;;;;;;;29.92;17.40;;;;;;;2.77;57.71;100761.69;7633344;32;39416;-79
2021/12/13 18:51:13;;;;;;;31.70;17.85;;;;;;;2.58;58.46;100773.97;7633111;32;39949;-79
2021/12/13 18:55:36;;;;;;;30.27;17.02;;;;;;;2.50;59.19;100782.22;7632163;32;38680;-79
2021/12/13 19:00:13;;;;;;;28.42;17.08;;;;;;;2.75;58.31;100779.06;7631703;32;37192;-79
2021/12/13 19:04:34;;;;;;;34.75;17.95;;;;;;;3.01;57.18;100781.12;7633552;32;39919;-78
2021/12/13 19:09:05;;;;;;;29.77;17.85;;;;;;;3.04;56.77;100777.22;7633125;32;39908;-79
2021/12/13 19:13:33;;;;;;;33.90;18.27;;;;;;;2.90;57.02;100787.03;7633373;32;37977;-79
2021/12/13 19:18:03;;;;;;;30.02;17.45;;;;;;;2.71;58.01;100784.03;7633416;32;37114;-80
2021/12/13 19:22:40;;;;;;;28.92;16.27;;;;;;;2.64;58.01;100791.22;7633175;32;40107;-80
2021/12/13 19:27:01;;;;;;;30.27;16.42;;;;;;;2.36;58.45;100783.09;7633181;32;40589;-79
2021/12/13 19:31:42;;;;;;;32.17;18.60;;;;;;;2.88;57.12;100789.94;7630144;32;38967;-80
2021/12/13 19:36:09;;;;;;;35.78;18.73;;;;;;;2.53;59.25;100787.19;7632188;32;37332;-81
2021/12/13 19:40:35;;;;;;;29.98;17.55;;;;;;;2.62;58.70;100790.56;7626550;32;39178;-79
2021/12/13 19:44:55;;;;;;;33.35;18.50;;;;;;;2.82;58.60;100793.41;7632108;32;39801;-80
2021/12/13 19:49:15;;;;;;;34.95;19.42;;;;;;;2.78;59.10;100784.06;7630056;32;37744;-79
2021/12/13 19:53:58;;;;;;;74.82;29.90;;;;;;;2.72;59.30;100784.84;7632160;32;37200;-78
2021/12/13 19:58:36;;;;;;;64.85;28.40;;;;;;;2.56;58.89;100797.56;7630265;32;37928;-80
2021/12/13 20:03:01;;;;;;;59.08;29.95;;;;;;;2.79;58.12;100797.34;7630978;32;40111;-80
2021/12/13 20:07:30;;;;;;;48.60;25.02;;;;;;;2.31;59.11;100794.47;7628192;32;38764;-80
2021/12/13 20:11:52;;;;;;;43.03;22.52;;;;;;;2.19;59.62;100787.91;7606694;32;38211;-78
2021/12/13 20:16:11;;;;;;;36.90;20.17;;;;;;;2.16;59.79;100797.22;7605376;32;39436;-80
2021/12/13 20:20:31;;;;;;;35.08;20.02;;;;;;;2.39;62.23;100796.19;7624121;32;40246;-79